createdAt,value
2023-04-14T00:01:27.155Z,54.14
2023-04-14T00:03:55.238Z,54.19
2023-04-14T00:06:24.635Z,54.22
2023-04-14T00:08:52.749Z,54.19
2023-04-14T00:11:20.675Z,54.24
2023-04-14T00:13:48.575Z,54.28
2023-04-14T00:16:16.714Z,54.24
2023-04-14T00:18:44.649Z,54.36
2023-04-14T00:21:13.371Z,54.37
2023-04-14T00:23:42.761Z,54.33
2023-04-14T00:26:10.689Z,54.35
2023-04-14T00:28:38.676Z,54.40
2023-04-14T00:31:07.134Z,54.32
2023-04-14T00:33:35.049Z,54.30
2023-04-14T00:36:02.960Z,54.28
2023-04-14T00:38:31.525Z,54.18
2023-04-14T00:41:00.822Z,54.08
2023-04-14T00:43:28.760Z,53.93
2023-04-14T00:45:56.703Z,53.99
2023-04-14T00:48:24.657Z,53.92
2023-04-14T00:50:52.699Z,53.98
2023-04-14T00:53:21.185Z,53.89
2023-04-14T00:55:49.099Z,54.03
2023-04-14T00:58:18.325Z,54.11
2023-04-14T01:00:46.325Z,54.31
2023-04-14T01:03:14.350Z,54.51
2023-04-14T01:05:42.438Z,54.59
2023-04-14T01:08:10.620Z,54.66
2023-04-14T01:10:42.210Z,54.73
2023-04-14T01:13:21.320Z,54.72
2023-04-14T01:15:51.885Z,54.77
2023-04-14T01:18:23.177Z,54.97
2023-04-14T01:20:51.727Z,55.03
2023-04-14T01:23:23.775Z,55.13
2023-04-14T01:26:29.763Z,55.26
2023-04-14T01:29:08.781Z,55.24
2023-04-14T01:31:39.496Z,55.35
2023-04-14T01:34:10.803Z,55.37
2023-04-14T01:36:41.493Z,55.60
2023-04-14T01:39:10.034Z,55.81
2023-04-14T01:41:38.814Z,55.95
2023-04-14T01:44:06.881Z,56.17
2023-04-14T01:46:35.318Z,56.30
2023-04-14T01:49:04.707Z,56.29
2023-04-14T01:51:32.853Z,56.51
2023-04-14T01:54:00.765Z,56.36
2023-04-14T01:56:28.656Z,56.28
2023-04-14T01:58:56.640Z,56.25
2023-04-14T02:01:24.911Z,56.13
2023-04-14T02:03:53.264Z,56.08
2023-04-14T02:06:22.751Z,56.10
2023-04-14T02:08:51.020Z,55.86
2023-04-14T02:11:18.991Z,55.83
2023-04-14T02:13:46.877Z,55.89
2023-04-14T02:16:15.247Z,55.91
2023-04-14T02:18:43.190Z,55.98
2023-04-14T02:21:11.075Z,55.95
2023-04-14T02:23:40.334Z,56.04
2023-04-14T02:26:11.102Z,56.08
2023-04-14T02:28:43.068Z,56.14
2023-04-14T02:31:11.432Z,56.25
2023-04-14T02:33:39.534Z,56.36
2023-04-14T02:36:10.573Z,56.86
2023-04-14T02:38:41.821Z,56.97
2023-04-14T02:41:14.862Z,57.42
2023-04-14T02:43:45.365Z,57.21
2023-04-14T02:46:13.384Z,57.33
2023-04-14T02:48:42.986Z,57.38
2023-04-14T02:51:11.441Z,57.22
2023-04-14T02:53:40.685Z,57.42
2023-04-14T02:56:08.727Z,57.22
2023-04-14T02:58:36.979Z,57.05
2023-04-14T03:01:05.042Z,56.97
2023-04-14T03:03:35.419Z,56.70
2023-04-14T03:06:03.704Z,56.61
2023-04-14T03:08:31.572Z,56.49
2023-04-14T03:11:00.923Z,56.17
2023-04-14T03:13:28.859Z,56.16
2023-04-14T03:15:56.775Z,56.02
2023-04-14T03:18:24.648Z,56.10
2023-04-14T03:20:55.920Z,56.22
2023-04-14T03:23:24.510Z,56.59
2023-04-14T03:25:52.356Z,56.52
2023-04-14T03:28:23.574Z,56.73
2023-04-14T03:30:52.686Z,56.72
2023-04-14T03:33:23.405Z,56.83
2023-04-14T03:35:51.638Z,56.96
2023-04-14T03:38:19.522Z,56.92
2023-04-14T03:40:48.481Z,57.00
2023-04-14T03:43:19.996Z,57.22
2023-04-14T03:45:50.178Z,57.04
2023-04-14T03:48:19.555Z,57.07
2023-04-14T03:50:49.893Z,57.19
2023-04-14T03:53:18.105Z,57.19
2023-04-14T03:55:46.659Z,57.26
2023-04-14T03:58:14.849Z,57.19
2023-04-14T04:00:42.985Z,57.25
2023-04-14T04:03:12.340Z,57.25
2023-04-14T04:05:40.999Z,57.26
2023-04-14T04:08:09.564Z,57.26
2023-04-14T04:10:37.501Z,57.30
2023-04-14T04:13:08.242Z,57.15
2023-04-14T04:15:36.226Z,57.28
2023-04-14T04:18:04.107Z,57.20
2023-04-14T04:20:33.398Z,57.30
2023-04-14T04:23:01.694Z,57.25
2023-04-14T04:25:29.576Z,57.07
2023-04-14T04:27:57.485Z,57.11
2023-04-14T04:30:25.389Z,57.12
2023-04-14T04:32:53.273Z,57.15
2023-04-14T04:35:21.362Z,57.13
2023-04-14T04:37:50.777Z,57.10
2023-04-14T04:40:18.781Z,57.24
2023-04-14T04:42:46.666Z,57.16
2023-04-14T04:45:14.542Z,57.25
2023-04-14T04:47:42.549Z,57.18
2023-04-14T04:50:10.687Z,57.34
2023-04-14T04:52:38.559Z,57.27
2023-04-14T04:55:08.849Z,57.44
2023-04-14T04:57:36.778Z,57.57
2023-04-14T05:00:05.424Z,57.38
2023-04-14T05:02:33.432Z,57.48
2023-04-14T05:05:01.422Z,57.66
2023-04-14T05:07:29.288Z,57.50
2023-04-14T05:09:57.244Z,58.00
2023-04-14T05:12:26.568Z,58.08
2023-04-14T05:14:54.432Z,58.31
2023-04-14T05:17:22.316Z,58.39
2023-04-14T05:19:50.531Z,58.42
2023-04-14T05:22:18.546Z,58.40
2023-04-14T05:24:50.531Z,58.41
2023-04-14T05:27:18.564Z,58.50
2023-04-14T05:29:47.846Z,58.44
2023-04-14T05:32:15.757Z,58.68
2023-04-14T05:34:43.637Z,58.89
2023-04-14T05:37:11.557Z,58.97
2023-04-14T05:39:39.435Z,58.96
2023-04-14T05:42:07.387Z,59.19
2023-04-14T05:44:35.598Z,59.31
2023-04-14T05:47:04.922Z,59.50
2023-04-14T05:49:32.904Z,59.61
2023-04-14T05:52:01.239Z,59.62
2023-04-14T05:54:29.154Z,59.76
2023-04-14T05:56:57.669Z,59.97
2023-04-14T05:59:25.671Z,60.22
2023-04-14T06:01:53.640Z,60.36
2023-04-14T06:04:23.156Z,60.29
2023-04-14T06:06:51.566Z,60.50
2023-04-14T06:09:19.500Z,60.23
2023-04-14T06:11:47.401Z,60.60
2023-04-14T06:14:15.457Z,60.55
2023-04-14T06:16:43.387Z,60.49
2023-04-14T06:19:11.327Z,60.63
2023-04-14T06:21:40.666Z,60.65
2023-04-14T06:24:09.273Z,60.70
2023-04-14T06:26:37.599Z,60.60
2023-04-14T06:29:07.547Z,60.62
2023-04-14T06:31:35.923Z,60.87
2023-04-14T06:34:04.343Z,60.94
2023-04-14T06:36:32.909Z,60.87
2023-04-14T06:39:02.605Z,61.02
2023-04-14T06:41:31.308Z,61.04
2023-04-14T06:43:59.207Z,61.13
2023-04-14T06:46:27.199Z,60.99
2023-04-14T06:48:55.139Z,61.12
2023-04-14T06:51:23.228Z,61.22
2023-04-14T06:53:51.518Z,61.08
2023-04-14T06:56:20.775Z,61.08
2023-04-14T06:58:48.715Z,61.27
2023-04-14T07:01:16.697Z,61.26
2023-04-14T07:03:47.152Z,61.25
2023-04-14T07:06:17.255Z,61.14
2023-04-14T07:08:46.695Z,61.19
2023-04-14T07:11:14.739Z,61.37
2023-04-14T07:13:44.079Z,61.23
2023-04-14T07:16:12.028Z,61.27
2023-04-14T07:18:39.916Z,61.34
2023-04-14T07:21:08.487Z,61.46
2023-04-14T07:23:36.366Z,61.55
2023-04-14T07:26:04.335Z,61.43
2023-04-14T07:28:32.542Z,61.41
2023-04-14T07:31:08.465Z,61.33
2023-04-14T07:33:36.605Z,61.43
2023-04-14T07:36:06.234Z,61.39
2023-04-14T07:38:34.173Z,61.50
2023-04-14T07:41:04.796Z,61.51
2023-04-14T07:43:35.212Z,61.60
2023-04-14T07:46:05.769Z,61.49
2023-04-14T07:48:33.967Z,61.45
2023-04-14T07:51:01.872Z,61.75
2023-04-14T07:53:29.804Z,61.63
2023-04-14T07:55:58.665Z,61.73
2023-04-14T07:58:29.075Z,61.55
2023-04-14T08:00:57.877Z,61.70
2023-04-14T08:03:27.372Z,61.63
2023-04-14T08:05:55.508Z,61.46
2023-04-14T08:08:23.646Z,61.47
2023-04-14T08:10:51.526Z,61.42
2023-04-14T08:13:20.007Z,61.23
2023-04-14T08:15:48.498Z,61.17
2023-04-14T08:18:16.365Z,61.04
2023-04-14T08:20:45.689Z,61.06
2023-04-14T08:23:13.608Z,61.09
2023-04-14T08:25:42.296Z,61.15
2023-04-14T08:28:10.286Z,61.33
2023-04-14T08:30:38.345Z,61.33
2023-04-14T08:33:06.296Z,61.10
2023-04-14T08:35:37.235Z,60.71
2023-04-14T08:38:10.817Z,60.60
2023-04-14T08:40:39.748Z,60.15
2023-04-14T08:43:07.771Z,60.15
2023-04-14T08:45:36.120Z,59.82
2023-04-14T08:48:04.987Z,59.49
2023-04-14T08:50:34.158Z,59.38
2023-04-14T08:53:02.962Z,58.63
2023-04-14T08:55:32.893Z,58.35
2023-04-14T08:58:02.113Z,58.39
2023-04-14T09:00:31.202Z,58.12
2023-04-14T09:02:59.316Z,57.76
2023-04-14T09:05:27.458Z,57.53
2023-04-14T09:07:55.446Z,57.11
2023-04-14T09:10:24.021Z,56.38
2023-04-14T09:12:53.587Z,56.43
2023-04-14T09:15:21.913Z,56.20
2023-04-14T09:17:50.150Z,55.95
2023-04-14T09:20:38.501Z,55.61
2023-04-14T09:23:09.429Z,55.04
2023-04-14T09:25:38.933Z,54.75
2023-04-14T09:28:08.249Z,54.77
2023-04-14T09:30:36.383Z,54.85
2023-04-14T09:33:06.312Z,54.79
2023-04-14T09:35:44.554Z,54.91
2023-04-14T09:38:12.480Z,54.33
2023-04-14T09:40:40.368Z,54.67
2023-04-14T09:43:12.922Z,54.58
2023-04-14T09:45:44.982Z,54.34
2023-04-14T09:48:16.391Z,54.13
2023-04-14T09:51:03.515Z,54.42
2023-04-14T09:53:32.124Z,54.13
2023-04-14T09:56:02.652Z,53.86
2023-04-14T09:58:32.793Z,54.37
2023-04-14T10:01:04.790Z,54.04
2023-04-14T10:03:34.749Z,54.13
2023-04-14T10:06:04.926Z,53.89
2023-04-14T10:08:37.749Z,54.19
2023-04-14T10:11:15.820Z,54.52
2023-04-14T10:13:45.366Z,54.15
2023-04-14T10:16:13.543Z,54.21
2023-04-14T10:18:41.505Z,53.85
2023-04-14T10:21:09.687Z,53.85
2023-04-14T10:23:38.414Z,53.76
2023-04-14T10:26:07.225Z,53.81
2023-04-14T10:28:36.052Z,53.93
2023-04-14T10:31:06.783Z,53.29
2023-04-14T10:33:34.746Z,53.33
2023-04-14T10:36:02.676Z,53.61
2023-04-14T10:38:42.321Z,52.95
2023-04-14T10:41:10.681Z,52.78
2023-04-14T10:43:38.736Z,51.78
2023-04-14T10:46:09.670Z,51.61
2023-04-14T10:48:38.742Z,50.54
2023-04-14T10:51:07.544Z,50.52
2023-04-14T10:53:37.824Z,50.33
2023-04-14T10:56:06.235Z,49.43
2023-04-14T10:58:37.815Z,48.90
2023-04-14T11:01:26.777Z,48.26
2023-04-14T11:03:56.317Z,48.15
2023-04-14T11:06:53.605Z,47.42
2023-04-14T11:09:25.667Z,46.86
2023-04-14T11:11:56.701Z,46.50
2023-04-14T11:14:32.885Z,47.22
2023-04-14T11:17:04.589Z,46.81
2023-04-14T11:19:33.309Z,46.96
2023-04-14T11:22:01.359Z,46.16
2023-04-14T11:24:29.443Z,46.59
2023-04-14T11:26:57.596Z,46.14
2023-04-14T11:29:25.526Z,46.01
2023-04-14T11:32:07.329Z,45.72
2023-04-14T11:34:35.510Z,46.43
2023-04-14T11:37:04.035Z,46.15
2023-04-14T11:39:32.229Z,46.32
2023-04-14T11:42:01.288Z,46.48
2023-04-14T11:44:29.484Z,45.95
2023-04-14T11:46:57.575Z,45.80
2023-04-14T11:49:36.688Z,44.94
2023-04-14T11:52:08.722Z,45.32
2023-04-14T11:54:38.035Z,45.24
2023-04-14T11:57:11.107Z,45.33
2023-04-14T11:59:43.585Z,45.37
2023-04-14T12:02:16.557Z,45.39
2023-04-14T12:04:46.881Z,45.44
2023-04-14T12:07:17.059Z,45.32
2023-04-14T12:09:47.457Z,45.42
2023-04-14T12:12:17.218Z,45.19
2023-04-14T12:14:45.706Z,45.64
2023-04-14T12:17:15.508Z,45.93
2023-04-14T12:19:43.904Z,45.51
2023-04-14T12:22:13.182Z,45.58
2023-04-14T12:24:42.005Z,45.50
2023-04-14T12:27:10.133Z,45.34
2023-04-14T12:29:38.172Z,45.64
2023-04-14T12:32:11.635Z,46.25
2023-04-14T12:34:39.672Z,46.01
2023-04-14T12:37:09.772Z,45.32
2023-04-14T12:39:52.677Z,44.93
2023-04-14T12:42:20.944Z,44.97
2023-04-14T12:44:55.974Z,45.18
2023-04-14T12:47:30.401Z,45.47
2023-04-14T12:49:58.579Z,44.95
2023-04-14T12:52:39.856Z,45.13
2023-04-14T12:55:19.723Z,45.28
2023-04-14T12:57:47.641Z,45.30
2023-04-14T13:00:16.145Z,45.67
2023-04-14T13:02:45.515Z,45.67
2023-04-14T13:05:15.149Z,46.02
2023-04-14T13:07:43.624Z,45.64
2023-04-14T13:10:13.269Z,46.00
2023-04-14T13:12:42.011Z,46.08
2023-04-14T13:16:09.236Z,45.81
2023-04-14T13:17:59.640Z,46.07
2023-04-14T13:20:30.581Z,46.31
2023-04-14T13:22:58.467Z,46.69
2023-04-14T13:25:27.866Z,46.52
2023-04-14T13:27:55.782Z,46.67
2023-04-14T13:30:23.757Z,47.75
2023-04-14T13:32:51.949Z,47.84
2023-04-14T13:35:19.954Z,47.19
2023-04-14T13:37:48.018Z,46.91
2023-04-14T13:40:16.098Z,48.09
2023-04-14T13:42:45.705Z,48.03
2023-04-14T13:45:13.831Z,47.09
2023-04-14T13:47:41.758Z,46.33
2023-04-14T13:50:10.719Z,46.09
2023-04-14T13:52:38.642Z,45.08
2023-04-14T13:55:07.192Z,43.90
2023-04-14T13:57:35.181Z,43.39
2023-04-14T14:00:07.234Z,43.40
2023-04-14T14:02:36.128Z,42.67
2023-04-14T14:05:04.225Z,42.17
2023-04-14T14:07:32.091Z,42.43
2023-04-14T14:10:00.156Z,42.67
2023-04-14T14:12:28.032Z,42.83
2023-04-14T14:14:55.927Z,42.90
2023-04-14T14:17:25.471Z,42.88
2023-04-14T14:19:53.806Z,43.05
2023-04-14T14:22:21.707Z,43.51
2023-04-14T14:24:49.606Z,44.15
2023-04-14T14:27:17.484Z,44.92
2023-04-14T14:29:45.392Z,46.16
2023-04-14T14:32:13.442Z,47.19
2023-04-14T14:34:43.911Z,47.82
2023-04-14T14:37:12.075Z,48.62
2023-04-14T14:39:40.048Z,49.06
2023-04-14T14:42:08.150Z,49.69
2023-04-14T14:44:38.550Z,50.20
2023-04-14T14:47:06.669Z,50.84
2023-04-14T14:49:34.656Z,50.91
2023-04-14T14:52:04.816Z,51.73
2023-04-14T14:54:32.634Z,52.01
2023-04-14T14:57:01.471Z,52.47
2023-04-14T14:59:29.761Z,52.39
2023-04-14T15:01:57.837Z,52.48
2023-04-14T15:04:25.931Z,52.67
2023-04-14T15:06:53.936Z,52.77
2023-04-14T15:09:23.218Z,52.79
2023-04-14T15:11:51.406Z,52.93
2023-04-14T15:14:19.320Z,52.63
2023-04-14T15:16:48.100Z,52.83
2023-04-14T15:19:16.582Z,53.02
2023-04-14T15:21:44.600Z,52.87
2023-04-14T15:24:12.528Z,53.14
2023-04-14T15:26:41.776Z,53.55
2023-04-14T15:29:09.679Z,53.66
2023-04-14T15:31:37.807Z,53.70
2023-04-14T15:34:06.925Z,53.65
2023-04-14T15:36:34.811Z,53.44
2023-04-14T15:39:02.720Z,52.86
2023-04-14T15:41:30.653Z,52.85
2023-04-14T15:44:00.238Z,52.59
2023-04-14T15:46:28.395Z,52.45
2023-04-14T15:48:56.377Z,51.95
2023-04-14T15:51:24.296Z,51.86
2023-04-14T15:53:52.829Z,51.96
2023-04-14T15:56:23.436Z,52.13
2023-04-14T15:58:51.672Z,52.69
2023-04-14T16:01:21.090Z,52.73
2023-04-14T16:03:51.194Z,52.65
2023-04-14T16:06:20.060Z,51.69
2023-04-14T16:08:47.958Z,51.14
2023-04-14T16:11:16.511Z,50.00
2023-04-14T16:13:45.739Z,48.25
2023-04-14T16:16:14.415Z,47.22
2023-04-14T16:18:43.864Z,44.19
2023-04-14T16:21:11.823Z,43.28
2023-04-14T16:23:39.789Z,43.23
2023-04-14T16:26:07.691Z,43.09
2023-04-14T16:28:35.875Z,43.88
2023-04-14T16:31:03.927Z,43.60
2023-04-14T16:33:32.704Z,44.21
2023-04-14T16:36:04.956Z,45.26
2023-04-14T16:38:32.950Z,46.03
2023-04-14T16:41:02.184Z,47.03
2023-04-14T16:43:30.226Z,46.47
2023-04-14T16:46:01.993Z,44.67
2023-04-14T16:48:30.705Z,43.56
2023-04-14T16:50:58.804Z,42.18
2023-04-14T16:53:29.753Z,40.99
2023-04-14T16:56:03.589Z,39.77
2023-04-14T16:58:31.604Z,39.82
2023-04-14T17:00:59.488Z,38.73
2023-04-14T17:03:27.727Z,37.78
2023-04-14T17:05:56.370Z,37.39
2023-04-14T17:08:24.379Z,37.41
2023-04-14T17:10:53.835Z,36.25
2023-04-14T17:13:22.407Z,35.89
2023-04-14T17:15:58.786Z,35.78
2023-04-14T17:18:33.918Z,35.66
2023-04-14T17:21:02.943Z,35.80
2023-04-14T17:23:30.877Z,35.63
2023-04-14T17:26:00.345Z,35.59
2023-04-14T17:28:28.824Z,35.33
2023-04-14T17:30:59.333Z,35.71
2023-04-14T17:33:27.642Z,35.32
2023-04-14T17:35:55.743Z,35.49
2023-04-14T17:38:24.279Z,35.23
2023-04-14T17:40:53.325Z,35.54
2023-04-14T17:43:23.104Z,36.41
2023-04-14T17:45:51.549Z,37.27
2023-04-14T17:48:19.722Z,38.02
2023-04-14T17:50:47.681Z,39.13
2023-04-14T17:53:16.388Z,39.72
2023-04-14T17:55:44.886Z,40.00
2023-04-14T17:58:12.800Z,40.38
2023-04-14T18:00:42.116Z,41.17
2023-04-14T18:03:10.091Z,42.01
2023-04-14T18:05:38.224Z,42.66
2023-04-14T18:08:06.776Z,43.48
2023-04-14T18:10:35.858Z,43.96
2023-04-14T18:13:03.716Z,44.40
2023-04-14T18:15:32.338Z,44.48
2023-04-14T18:18:01.813Z,45.06
2023-04-14T18:20:30.150Z,45.64
2023-04-14T18:23:02.177Z,45.59
2023-04-14T18:26:26.283Z,45.52
2023-04-14T18:28:18.385Z,45.91
2023-04-14T18:30:53.059Z,45.66
2023-04-14T18:33:22.542Z,45.79
2023-04-14T18:35:51.881Z,45.70
2023-04-14T18:38:19.964Z,46.40
2023-04-14T18:40:48.465Z,46.59
2023-04-14T18:43:16.414Z,46.83
2023-04-14T18:45:46.305Z,46.62
2023-04-14T18:48:14.340Z,46.84
2023-04-14T18:50:43.589Z,47.11
2023-04-14T18:53:11.765Z,47.34
2023-04-14T18:55:45.181Z,47.20
2023-04-14T18:58:14.107Z,47.55
2023-04-14T19:00:43.144Z,47.62
2023-04-14T19:03:11.480Z,47.46
2023-04-14T19:05:39.465Z,47.52
2023-04-14T19:08:09.064Z,47.75
2023-04-14T19:10:37.390Z,48.11
2023-04-14T19:13:05.807Z,48.13
2023-04-14T19:15:34.193Z,48.51
2023-04-14T19:18:03.691Z,48.58
2023-04-14T19:20:31.884Z,48.78
2023-04-14T19:22:59.800Z,48.89
2023-04-14T19:25:29.440Z,49.15
2023-04-14T19:28:01.186Z,49.04
2023-04-14T19:30:29.305Z,49.15
2023-04-14T19:32:57.761Z,49.38
2023-04-14T19:35:25.745Z,49.31
2023-04-14T19:37:55.836Z,49.42
2023-04-14T19:40:24.223Z,49.53
2023-04-14T19:42:55.244Z,49.67
2023-04-14T19:45:23.216Z,49.55
2023-04-14T19:47:51.658Z,49.30
2023-04-14T19:50:19.603Z,49.55
2023-04-14T19:52:49.829Z,49.62
2023-04-14T19:55:18.042Z,49.65
2023-04-14T19:57:47.046Z,49.77
2023-04-14T20:00:17.020Z,49.53
2023-04-14T20:02:45.123Z,49.37
2023-04-14T20:05:14.024Z,49.43
2023-04-14T20:07:41.908Z,49.39
2023-04-14T20:10:10.798Z,49.18
2023-04-14T20:12:38.972Z,49.11
2023-04-14T20:15:08.286Z,49.16
2023-04-14T20:17:37.702Z,49.08
2023-04-14T20:20:06.601Z,48.93
2023-04-14T20:22:34.618Z,48.84
2023-04-14T20:25:02.574Z,48.99
2023-04-14T20:27:31.714Z,49.03
2023-04-14T20:29:59.726Z,49.20
2023-04-14T20:32:27.651Z,49.13
2023-04-14T20:34:57.097Z,49.14
2023-04-14T20:37:25.113Z,49.16
2023-04-14T20:39:53.349Z,49.17
2023-04-14T20:42:21.296Z,49.18
2023-04-14T20:44:49.248Z,49.14
2023-04-14T20:47:17.417Z,49.22
2023-04-14T20:49:45.366Z,49.18
2023-04-14T20:52:14.749Z,49.30
2023-04-14T20:54:42.599Z,48.99
2023-04-14T20:57:10.762Z,48.90
2023-04-14T20:59:38.970Z,49.09
2023-04-14T21:02:07.032Z,48.99
2023-04-14T21:04:36.347Z,49.00
2023-04-14T21:07:04.718Z,49.10
2023-04-14T21:09:34.001Z,49.12
2023-04-14T21:12:15.587Z,49.22
2023-04-14T21:15:30.763Z,49.11
2023-04-14T21:17:32.363Z,49.12
2023-04-14T21:20:00.319Z,49.14
2023-04-14T21:22:28.219Z,49.20
2023-04-14T21:24:57.561Z,49.17
2023-04-14T21:27:25.463Z,49.22
2023-04-14T21:29:53.457Z,49.07
2023-04-14T21:32:21.883Z,49.13
2023-04-14T21:34:49.768Z,48.96
2023-04-14T21:37:18.754Z,48.96
2023-04-14T21:39:46.631Z,49.10
2023-04-14T21:42:15.886Z,49.14
2023-04-14T21:44:43.868Z,49.40
2023-04-14T21:47:11.804Z,49.42
2023-04-14T21:49:39.805Z,49.67
2023-04-14T21:52:08.709Z,49.72
2023-04-14T21:54:38.823Z,49.77
2023-04-14T21:57:06.920Z,49.93
2023-04-14T21:59:36.599Z,50.49
2023-04-14T22:02:05.229Z,50.34
2023-04-14T22:04:36.857Z,50.42
2023-04-14T22:07:05.417Z,50.58
2023-04-14T22:09:34.406Z,50.48
2023-04-14T22:12:02.285Z,50.63
2023-04-14T22:14:31.121Z,50.73
2023-04-14T22:17:01.034Z,50.98
2023-04-14T22:19:29.987Z,50.88
2023-04-14T22:21:57.899Z,50.98
2023-04-14T22:24:25.748Z,51.03
2023-04-14T22:26:53.898Z,51.00
2023-04-14T22:29:21.788Z,51.03
2023-04-14T22:31:49.676Z,51.20
2023-04-14T22:34:18.978Z,51.26
2023-04-14T22:36:47.105Z,51.36
2023-04-14T22:39:14.967Z,51.28
2023-04-14T22:41:43.211Z,51.41
2023-04-14T22:44:11.105Z,51.40
2023-04-14T22:46:39.100Z,51.62
2023-04-14T22:49:07.335Z,51.79
2023-04-14T22:51:36.707Z,51.83
2023-04-14T22:54:04.683Z,52.01
2023-04-14T22:56:32.575Z,52.04
2023-04-14T22:59:00.691Z,52.30
2023-04-14T23:01:29.692Z,52.32
2023-04-14T23:03:57.664Z,52.39
2023-04-14T23:06:25.826Z,52.51
2023-04-14T23:08:55.072Z,52.57
2023-04-14T23:11:22.977Z,52.65
2023-04-14T23:13:50.977Z,52.65
2023-04-14T23:16:20.003Z,52.50
2023-04-14T23:18:49.622Z,52.67
2023-04-14T23:21:17.842Z,52.59
2023-04-14T23:23:46.066Z,52.73
2023-04-14T23:26:15.548Z,52.59
2023-04-14T23:28:43.468Z,52.77
2023-04-14T23:31:11.752Z,52.73
2023-04-14T23:33:39.678Z,52.67
2023-04-14T23:36:08.299Z,52.71
2023-04-14T23:38:36.542Z,52.78
2023-04-14T23:41:04.924Z,52.70
2023-04-14T23:43:34.563Z,52.54
2023-04-14T23:46:02.492Z,52.62
2023-04-14T23:48:30.409Z,52.52
2023-04-14T23:51:01.544Z,52.65
2023-04-14T23:53:44.901Z,52.68
2023-04-14T23:56:12.772Z,52.59
2023-04-14T23:58:42.458Z,52.78
